EXS7LX EGNM-LCLK
Flight info
| Callsign | EXS7LX |
|---|---|
| Flight time | N/A |
| Altitude | 35000 |
| Route | LAMIX L603 DOLAS DCT NAVPI DCT GISEB DCT DIXAT DCT TIVUN DCT ESAMA DCT OSBIT DCT BARSU DCT MOOCE DCT RUDNO DCT DEXIT DCT BARUG DCT STEIN DCT OLATI DCT BABIT DCT KOTUS DCT OBAGI DCT NISVA DCT VIT DCT USALI DCT OTKOK DCT RODIP UN131 PIBOM DCT BELGI UN131 KULAR UT39 TOMBI DCT DASNI M601 BONEK |
| Aircraft | B738/M-SDE2E3FGHIRWXY/LB1 |
Departure
| Time | N/A |
|---|---|
| Airport | Leeds Bradford Airport (EGNM) |
Arrival
| Time | 2026-05-04 18:54 |
|---|---|
| Airport | Larnaca International Airport (LCLK) |
| Time | Latitude | Longitude | Altitude | Speed | Heading |
|---|---|---|---|---|---|
| 2026-05-04 17:30 | 40.71354 | 25.58039 | 35055 ft | 435 kts | 130° |
| 2026-05-04 17:31 | 40.67260 | 25.63860 | 35063 ft | 436 kts | 130° |
| 2026-05-04 17:32 | 40.56929 | 25.78509 | 35055 ft | 437 kts | 130° |
| 2026-05-04 17:33 | 40.48657 | 25.90229 | 35053 ft | 437 kts | 129° |
| 2026-05-04 17:34 | 40.40663 | 26.02233 | 35055 ft | 436 kts | 128° |
| 2026-05-04 17:35 | 40.30638 | 26.17191 | 35055 ft | 437 kts | 128° |
| 2026-05-04 17:36 | 40.26621 | 26.23152 | 35057 ft | 437 kts | 128° |
| 2026-05-04 17:36 | 40.22618 | 26.29082 | 35079 ft | 437 kts | 128° |
| 2026-05-04 17:37 | 40.18561 | 26.35082 | 35077 ft | 437 kts | 128° |
| 2026-05-04 17:37 | 40.14552 | 26.41000 | 35076 ft | 438 kts | 128° |
| 2026-05-04 17:38 | 40.10360 | 26.46786 | 35083 ft | 440 kts | 133° |
| 2026-05-04 17:38 | 40.05957 | 26.52353 | 35079 ft | 441 kts | 133° |
| 2026-05-04 17:39 | 39.99338 | 26.60732 | 35075 ft | 443 kts | 132° |
| 2026-05-04 17:39 | 39.94934 | 26.66354 | 35076 ft | 443 kts | 132° |
| 2026-05-04 17:40 | 39.90524 | 26.71982 | 35072 ft | 444 kts | 132° |
| 2026-05-04 17:40 | 39.86107 | 26.77607 | 35072 ft | 444 kts | 132° |
| 2026-05-04 17:41 | 39.81684 | 26.83229 | 35072 ft | 445 kts | 133° |
| 2026-05-04 17:41 | 39.77258 | 26.88844 | 35083 ft | 445 kts | 132° |
| 2026-05-04 17:42 | 39.72776 | 26.94416 | 35065 ft | 446 kts | 133° |
| 2026-05-04 17:42 | 39.68280 | 26.99914 | 35073 ft | 447 kts | 133° |
| 2026-05-04 17:43 | 39.63729 | 27.05485 | 35072 ft | 447 kts | 133° |
| 2026-05-04 17:43 | 39.59213 | 27.11016 | 35077 ft | 447 kts | 133° |
| 2026-05-04 17:44 | 39.54695 | 27.16545 | 35083 ft | 447 kts | 133° |
| 2026-05-04 17:44 | 39.50191 | 27.22051 | 35065 ft | 447 kts | 131° |
| 2026-05-04 17:45 | 39.46142 | 27.28088 | 35066 ft | 444 kts | 124° |
| 2026-05-04 17:45 | 39.42297 | 27.34340 | 35062 ft | 444 kts | 124° |
| 2026-05-04 17:46 | 39.38380 | 27.40530 | 35058 ft | 445 kts | 125° |
| 2026-05-04 17:46 | 39.34423 | 27.46703 | 35051 ft | 446 kts | 126° |
| 2026-05-04 17:47 | 39.30457 | 27.52867 | 35062 ft | 446 kts | 125° |
| 2026-05-04 17:47 | 39.26485 | 27.59036 | 35053 ft | 447 kts | 125° |
| 2026-05-04 17:48 | 39.22508 | 27.65205 | 35054 ft | 447 kts | 125° |
| 2026-05-04 17:48 | 39.18529 | 27.71366 | 35056 ft | 447 kts | 125° |
| 2026-05-04 17:49 | 39.14544 | 27.77524 | 35046 ft | 447 kts | 125° |
| 2026-05-04 17:49 | 39.10576 | 27.83646 | 35050 ft | 447 kts | 125° |
| 2026-05-04 17:50 | 39.06583 | 27.89790 | 35048 ft | 448 kts | 125° |
| 2026-05-04 17:50 | 39.02581 | 27.95929 | 35059 ft | 448 kts | 125° |
| 2026-05-04 17:51 | 38.98570 | 28.02073 | 35042 ft | 448 kts | 125° |
| 2026-05-04 17:51 | 38.94559 | 28.08207 | 35073 ft | 448 kts | 125° |
| 2026-05-04 17:52 | 38.90545 | 28.14336 | 35060 ft | 449 kts | 125° |
| 2026-05-04 17:52 | 38.86503 | 28.20497 | 35051 ft | 451 kts | 125° |
| 2026-05-04 17:53 | 38.82450 | 28.26660 | 35050 ft | 453 kts | 125° |
| 2026-05-04 17:53 | 38.78368 | 28.32857 | 35063 ft | 454 kts | 126° |
| 2026-05-04 17:54 | 38.74312 | 28.39000 | 35066 ft | 455 kts | 127° |
| 2026-05-04 17:54 | 38.70217 | 28.45192 | 35047 ft | 455 kts | 127° |
| 2026-05-04 17:55 | 38.66131 | 28.51359 | 35050 ft | 454 kts | 127° |
| 2026-05-04 17:55 | 38.62051 | 28.57507 | 35041 ft | 453 kts | 127° |
| 2026-05-04 17:56 | 38.57878 | 28.63519 | 35037 ft | 454 kts | 134° |
| 2026-05-04 17:56 | 38.52790 | 28.68346 | 35053 ft | 456 kts | 143° |
| 2026-05-04 17:57 | 38.47569 | 28.72900 | 35038 ft | 455 kts | 143° |
| 2026-05-04 17:57 | 38.42366 | 28.77486 | 35046 ft | 455 kts | 142° |
| 2026-05-04 17:58 | 38.37175 | 28.82109 | 35041 ft | 456 kts | 142° |
| 2026-05-04 17:58 | 38.31973 | 28.86749 | 35048 ft | 457 kts | 142° |
| 2026-05-04 17:59 | 38.26753 | 28.91397 | 35044 ft | 459 kts | 142° |
| 2026-05-04 18:00 | 38.18871 | 28.98397 | 35041 ft | 462 kts | 143° |
| 2026-05-04 18:00 | 38.13595 | 29.03070 | 35045 ft | 463 kts | 143° |
| 2026-05-04 18:01 | 38.08349 | 29.07708 | 35048 ft | 463 kts | 143° |
| 2026-05-04 18:01 | 38.03049 | 29.12387 | 35040 ft | 465 kts | 143° |
| 2026-05-04 18:02 | 37.95084 | 29.19403 | 35040 ft | 465 kts | 143° |
| 2026-05-04 18:02 | 37.89738 | 29.24102 | 35039 ft | 463 kts | 144° |
| 2026-05-04 18:03 | 37.84443 | 29.28748 | 35037 ft | 463 kts | 144° |
| 2026-05-04 18:03 | 37.79142 | 29.33384 | 35040 ft | 463 kts | 144° |
| 2026-05-04 18:04 | 37.73871 | 29.37985 | 35045 ft | 464 kts | 144° |
| 2026-05-04 18:05 | 37.65904 | 29.44928 | 35045 ft | 464 kts | 144° |
| 2026-05-04 18:05 | 37.60552 | 29.49583 | 35047 ft | 465 kts | 144° |
| 2026-05-04 18:06 | 37.52595 | 29.56487 | 35044 ft | 465 kts | 145° |
| 2026-05-04 18:06 | 37.47275 | 29.61094 | 35045 ft | 464 kts | 145° |
| 2026-05-04 18:07 | 37.41942 | 29.65705 | 35037 ft | 465 kts | 145° |
| 2026-05-04 18:07 | 37.36613 | 29.70304 | 35045 ft | 464 kts | 145° |
| 2026-05-04 18:08 | 37.32181 | 29.74125 | 35037 ft | 464 kts | 145° |
| 2026-05-04 18:08 | 37.26864 | 29.78718 | 35039 ft | 464 kts | 145° |
| 2026-05-04 18:09 | 37.16213 | 29.87903 | 35049 ft | 470 kts | 145° |
| 2026-05-04 18:10 | 37.10763 | 29.92587 | 35058 ft | 478 kts | 146° |
| 2026-05-04 18:10 | 37.05336 | 29.97223 | 35016 ft | 466 kts | 146° |
| 2026-05-04 18:11 | 37.00012 | 30.01756 | 35029 ft | 463 kts | 146° |
| 2026-05-04 18:11 | 36.94682 | 30.06291 | 35010 ft | 464 kts | 146° |
| 2026-05-04 18:12 | 36.89326 | 30.10844 | 35016 ft | 465 kts | 146° |
| 2026-05-04 18:12 | 36.83964 | 30.15391 | 34998 ft | 467 kts | 146° |
| 2026-05-04 18:13 | 36.78603 | 30.19937 | 34987 ft | 469 kts | 146° |
| 2026-05-04 18:14 | 36.70468 | 30.26829 | 34990 ft | 470 kts | 147° |
| 2026-05-04 18:14 | 36.65095 | 30.31371 | 34955 ft | 469 kts | 147° |
| 2026-05-04 18:15 | 36.54292 | 30.40480 | 34939 ft | 468 kts | 147° |
| 2026-05-04 18:16 | 36.48902 | 30.45013 | 34927 ft | 467 kts | 147° |
| 2026-05-04 18:16 | 36.43527 | 30.49526 | 34921 ft | 466 kts | 147° |
| 2026-05-04 18:17 | 36.35478 | 30.56268 | 34908 ft | 464 kts | 147° |
| 2026-05-04 18:18 | 36.27451 | 30.62977 | 34900 ft | 463 kts | 147° |
| 2026-05-04 18:18 | 36.22123 | 30.67421 | 34904 ft | 461 kts | 147° |
| 2026-05-04 18:19 | 36.14179 | 30.74033 | 34905 ft | 459 kts | 148° |
| 2026-05-04 18:19 | 36.08878 | 30.78437 | 34906 ft | 458 kts | 148° |
| 2026-05-04 18:20 | 36.03221 | 30.81870 | 34916 ft | 452 kts | 166° |
| 2026-05-04 18:20 | 35.97062 | 30.82978 | 34921 ft | 445 kts | 180° |
| 2026-05-04 18:21 | 35.90873 | 30.83263 | 34910 ft | 445 kts | 181° |
| 2026-05-04 18:21 | 35.84683 | 30.83591 | 34911 ft | 446 kts | 180° |
| 2026-05-04 18:22 | 35.78487 | 30.83969 | 34903 ft | 446 kts | 180° |
| 2026-05-04 18:22 | 35.72285 | 30.84353 | 34911 ft | 446 kts | 180° |
| 2026-05-04 18:23 | 35.66102 | 30.85154 | 34883 ft | 454 kts | 162° |
| 2026-05-04 18:23 | 35.63300 | 30.86975 | 34920 ft | 458 kts | 143° |
| 2026-05-04 18:23 | 35.61048 | 30.89735 | 34917 ft | 458 kts | 127° |
| 2026-05-04 18:24 | 35.59516 | 30.93111 | 34900 ft | 454 kts | 109° |
| 2026-05-04 18:24 | 35.58550 | 30.96759 | 34922 ft | 444 kts | 107° |
| 2026-05-04 18:24 | 35.57674 | 31.00337 | 34889 ft | 431 kts | 106° |
| 2026-05-04 18:24 | 35.56838 | 31.03813 | 34887 ft | 417 kts | 106° |
| 2026-05-04 18:25 | 35.55202 | 31.10507 | 34688 ft | 405 kts | 107° |
| 2026-05-04 18:25 | 35.54375 | 31.13812 | 34235 ft | 407 kts | 107° |
| 2026-05-04 18:25 | 35.53521 | 31.17190 | 33224 ft | 423 kts | 107° |
| 2026-05-04 18:26 | 35.52630 | 31.20688 | 32394 ft | 433 kts | 107° |
| 2026-05-04 18:26 | 35.51729 | 31.24210 | 31997 ft | 430 kts | 107° |
| 2026-05-04 18:26 | 35.50834 | 31.27698 | 31716 ft | 426 kts | 107° |
| 2026-05-04 18:26 | 35.49948 | 31.31145 | 31357 ft | 423 kts | 107° |
| 2026-05-04 18:27 | 35.49063 | 31.34588 | 30996 ft | 421 kts | 107° |
| 2026-05-04 18:27 | 35.48186 | 31.37994 | 30666 ft | 418 kts | 106° |
| 2026-05-04 18:27 | 35.47312 | 31.41385 | 30339 ft | 415 kts | 106° |
| 2026-05-04 18:27 | 35.46444 | 31.44748 | 30010 ft | 412 kts | 106° |
| 2026-05-04 18:28 | 35.45590 | 31.48053 | 29637 ft | 410 kts | 106° |
| 2026-05-04 18:28 | 35.44732 | 31.51369 | 29220 ft | 407 kts | 106° |
| 2026-05-04 18:28 | 35.43875 | 31.54681 | 28774 ft | 406 kts | 107° |
| 2026-05-04 18:28 | 35.43019 | 31.57982 | 28301 ft | 406 kts | 107° |
| 2026-05-04 18:29 | 35.42165 | 31.61273 | 27887 ft | 404 kts | 107° |
| 2026-05-04 18:29 | 35.41313 | 31.64550 | 27510 ft | 402 kts | 107° |
| 2026-05-04 18:29 | 35.40464 | 31.67810 | 27131 ft | 400 kts | 107° |
| 2026-05-04 18:29 | 35.39620 | 31.71049 | 26742 ft | 398 kts | 107° |
| 2026-05-04 18:30 | 35.37930 | 31.77521 | 25909 ft | 397 kts | 107° |
| 2026-05-04 18:30 | 35.37089 | 31.80738 | 25566 ft | 395 kts | 107° |
| 2026-05-04 18:30 | 35.36250 | 31.83939 | 25213 ft | 394 kts | 108° |
| 2026-05-04 18:31 | 35.35414 | 31.87129 | 24869 ft | 392 kts | 108° |
| 2026-05-04 18:31 | 35.34583 | 31.90293 | 24530 ft | 390 kts | 108° |
| 2026-05-04 18:31 | 35.33754 | 31.93450 | 24196 ft | 388 kts | 108° |
| 2026-05-04 18:31 | 35.32926 | 31.96596 | 23859 ft | 387 kts | 108° |
| 2026-05-04 18:32 | 35.32101 | 31.99731 | 23531 ft | 386 kts | 108° |
| 2026-05-04 18:32 | 35.31278 | 32.02851 | 23137 ft | 385 kts | 108° |
| 2026-05-04 18:32 | 35.30457 | 32.05961 | 22768 ft | 383 kts | 108° |
| 2026-05-04 18:32 | 35.29646 | 32.09050 | 22414 ft | 380 kts | 108° |
| 2026-05-04 18:33 | 35.28843 | 32.12130 | 22078 ft | 378 kts | 108° |
| 2026-05-04 18:33 | 35.28055 | 32.15151 | 21749 ft | 376 kts | 108° |
| 2026-05-04 18:33 | 35.27261 | 32.18195 | 21420 ft | 374 kts | 108° |
| 2026-05-04 18:33 | 35.26472 | 32.21214 | 21098 ft | 372 kts | 108° |
| 2026-05-04 18:34 | 35.25686 | 32.24218 | 20775 ft | 370 kts | 108° |
| 2026-05-04 18:34 | 35.24903 | 32.27208 | 20452 ft | 368 kts | 108° |
| 2026-05-04 18:34 | 35.24122 | 32.30183 | 20128 ft | 366 kts | 108° |
| 2026-05-04 18:34 | 35.23346 | 32.33139 | 19808 ft | 365 kts | 108° |
| 2026-05-04 18:35 | 35.22569 | 32.36090 | 19489 ft | 364 kts | 108° |
| 2026-05-04 18:35 | 35.21804 | 32.39038 | 19170 ft | 363 kts | 107° |
| 2026-05-04 18:35 | 35.21102 | 32.41989 | 18853 ft | 362 kts | 106° |
| 2026-05-04 18:35 | 35.20404 | 32.44938 | 18536 ft | 361 kts | 106° |
| 2026-05-04 18:36 | 35.19687 | 32.47882 | 18201 ft | 360 kts | 107° |
| 2026-05-04 18:36 | 35.18951 | 32.50805 | 17847 ft | 360 kts | 107° |
| 2026-05-04 18:36 | 35.18200 | 32.53719 | 17507 ft | 358 kts | 108° |
| 2026-05-04 18:36 | 35.17443 | 32.56606 | 17178 ft | 357 kts | 108° |
| 2026-05-04 18:37 | 35.16676 | 32.59487 | 16858 ft | 355 kts | 108° |
| 2026-05-04 18:37 | 35.15913 | 32.62346 | 16553 ft | 354 kts | 108° |
| 2026-05-04 18:37 | 35.15124 | 32.65193 | 16230 ft | 353 kts | 111° |
| 2026-05-04 18:37 | 35.14285 | 32.68006 | 15915 ft | 352 kts | 111° |
| 2026-05-04 18:38 | 35.13459 | 32.70816 | 15605 ft | 350 kts | 110° |
| 2026-05-04 18:38 | 35.12663 | 32.73617 | 15296 ft | 349 kts | 110° |
| 2026-05-04 18:38 | 35.11889 | 32.76420 | 14970 ft | 348 kts | 109° |
| 2026-05-04 18:38 | 35.11132 | 32.79215 | 14667 ft | 346 kts | 109° |
| 2026-05-04 18:39 | 35.10380 | 32.82013 | 14350 ft | 345 kts | 109° |
| 2026-05-04 18:39 | 35.09636 | 32.84788 | 14036 ft | 344 kts | 109° |
| 2026-05-04 18:39 | 35.08892 | 32.87567 | 13721 ft | 344 kts | 109° |
| 2026-05-04 18:39 | 35.08147 | 32.90344 | 13351 ft | 343 kts | 110° |
| 2026-05-04 18:40 | 35.07406 | 32.93102 | 13026 ft | 341 kts | 110° |
| 2026-05-04 18:40 | 35.06643 | 32.95857 | 12514 ft | 345 kts | 110° |
| 2026-05-04 18:40 | 35.05850 | 32.98612 | 12170 ft | 344 kts | 110° |
| 2026-05-04 18:40 | 35.05053 | 33.01362 | 11826 ft | 342 kts | 111° |
| 2026-05-04 18:41 | 35.04261 | 33.04099 | 11493 ft | 340 kts | 110° |
| 2026-05-04 18:41 | 35.03478 | 33.06809 | 11184 ft | 338 kts | 110° |
| 2026-05-04 18:41 | 35.02706 | 33.09490 | 10864 ft | 331 kts | 110° |
| 2026-05-04 18:41 | 35.01951 | 33.12110 | 10556 ft | 324 kts | 110° |
| 2026-05-04 18:42 | 35.01214 | 33.14668 | 10265 ft | 317 kts | 110° |
| 2026-05-04 18:42 | 35.00490 | 33.17174 | 10026 ft | 307 kts | 110° |
| 2026-05-04 18:42 | 34.99802 | 33.19558 | 9994 ft | 293 kts | 110° |
| 2026-05-04 18:42 | 34.99128 | 33.21890 | 9738 ft | 292 kts | 110° |
| 2026-05-04 18:43 | 34.98455 | 33.24220 | 9467 ft | 291 kts | 110° |
| 2026-05-04 18:43 | 34.97783 | 33.26543 | 9194 ft | 290 kts | 110° |
| 2026-05-04 18:43 | 34.97112 | 33.28859 | 8917 ft | 289 kts | 110° |
| 2026-05-04 18:43 | 34.96450 | 33.31141 | 8652 ft | 289 kts | 110° |
| 2026-05-04 18:44 | 34.95781 | 33.33447 | 8394 ft | 288 kts | 110° |
| 2026-05-04 18:44 | 34.95555 | 33.34221 | 8293 ft | 288 kts | 110° |
| 2026-05-04 18:44 | 34.94444 | 33.38042 | 7844 ft | 288 kts | 109° |
| 2026-05-04 18:44 | 34.93774 | 33.40342 | 7579 ft | 287 kts | 109° |
| 2026-05-04 18:45 | 34.93104 | 33.42642 | 7313 ft | 288 kts | 109° |
| 2026-05-04 18:45 | 34.92433 | 33.44940 | 7029 ft | 289 kts | 109° |
| 2026-05-04 18:45 | 34.91761 | 33.47244 | 6745 ft | 289 kts | 109° |
| 2026-05-04 18:45 | 34.91090 | 33.49545 | 6452 ft | 288 kts | 109° |
| 2026-05-04 18:46 | 34.90420 | 33.51842 | 6164 ft | 287 kts | 109° |
| 2026-05-04 18:46 | 34.89749 | 33.54142 | 5865 ft | 287 kts | 109° |
| 2026-05-04 18:46 | 34.89082 | 33.56423 | 5580 ft | 286 kts | 109° |
| 2026-05-04 18:46 | 34.88416 | 33.58696 | 5304 ft | 284 kts | 109° |
| 2026-05-04 18:47 | 34.87755 | 33.60965 | 5029 ft | 283 kts | 107° |
| 2026-05-04 18:47 | 34.87566 | 33.63300 | 4731 ft | 277 kts | 75° |
| 2026-05-04 18:47 | 34.88219 | 33.65469 | 4512 ft | 270 kts | 63° |
| 2026-05-04 18:47 | 34.88961 | 33.67564 | 4235 ft | 269 kts | 63° |
| 2026-05-04 18:48 | 34.89690 | 33.69637 | 4088 ft | 263 kts | 65° |
| 2026-05-04 18:48 | 34.90391 | 33.71659 | 3972 ft | 255 kts | 65° |
| 2026-05-04 18:48 | 34.91057 | 33.73604 | 3889 ft | 242 kts | 65° |
| 2026-05-04 18:48 | 34.91689 | 33.75454 | 3766 ft | 231 kts | 65° |
| 2026-05-04 18:49 | 34.92290 | 33.77215 | 3645 ft | 218 kts | 65° |
| 2026-05-04 18:49 | 34.93049 | 33.78739 | 3437 ft | 204 kts | 35° |
| 2026-05-04 18:49 | 34.94241 | 33.79447 | 3291 ft | 188 kts | 4° |
| 2026-05-04 18:49 | 34.95493 | 33.79399 | 3031 ft | 179 kts | 339° |
| 2026-05-04 18:50 | 34.96559 | 33.78716 | 2790 ft | 170 kts | 314° |
| 2026-05-04 18:50 | 34.97232 | 33.77608 | 2602 ft | 159 kts | 291° |
| 2026-05-04 18:50 | 34.97451 | 33.76324 | 2422 ft | 154 kts | 270° |
| 2026-05-04 18:50 | 34.97273 | 33.75044 | 2247 ft | 155 kts | 253° |
| 2026-05-04 18:51 | 34.96642 | 33.73974 | 2228 ft | 158 kts | 235° |
| 2026-05-04 18:51 | 34.95931 | 33.72919 | 2032 ft | 158 kts | 234° |
| 2026-05-04 18:51 | 34.95208 | 33.71954 | 1827 ft | 151 kts | 232° |
| 2026-05-04 18:51 | 34.94485 | 33.71055 | 1650 ft | 147 kts | 232° |
| 2026-05-04 18:52 | 34.93741 | 33.70144 | 1483 ft | 154 kts | 229° |
| 2026-05-04 18:52 | 34.92985 | 33.69226 | 1262 ft | 151 kts | 229° |
| 2026-05-04 18:52 | 34.92499 | 33.68634 | 1144 ft | 149 kts | 228° |
| 2026-05-04 18:52 | 34.91773 | 33.67749 | 959 ft | 148 kts | 225° |
| 2026-05-04 18:53 | 34.91036 | 33.66852 | 781 ft | 150 kts | 225° |
| 2026-05-04 18:53 | 34.90301 | 33.65956 | 600 ft | 150 kts | 225° |
| 2026-05-04 18:53 | 34.89557 | 33.65061 | 424 ft | 149 kts | 224° |
| 2026-05-04 18:53 | 34.88829 | 33.64169 | 247 ft | 147 kts | 226° |
| 2026-05-04 18:54 | 34.88114 | 33.63295 | 45 ft | 143 kts | 226° |
| 2026-05-04 18:54 | 34.87463 | 33.62500 | 15 ft | 118 kts | 225° |
| 2026-05-04 18:54 | 34.87070 | 33.62016 | 20 ft | 36 kts | 230° |
| 2026-05-04 18:54 | 34.86979 | 33.61806 | 21 ft | 23 kts | 249° |
| 2026-05-04 18:55 | 34.86947 | 33.61687 | 21 ft | 13 kts | 253° |
| 2026-05-04 18:55 | 34.86907 | 33.61503 | 18 ft | 9 kts | 257° |
| 2026-05-04 18:55 | 34.86881 | 33.61432 | 19 ft | 9 kts | 247° |
| 2026-05-04 18:56 | 34.86896 | 33.61364 | 16 ft | 9 kts | 315° |
| 2026-05-04 18:56 | 34.86946 | 33.61303 | 19 ft | 10 kts | 315° |
| 2026-05-04 18:56 | 34.86993 | 33.61244 | 19 ft | 7 kts | 314° |
| 2026-05-04 18:56 | 34.87030 | 33.61198 | 21 ft | 7 kts | 309° |
| 2026-05-04 18:57 | 34.87021 | 33.61141 | 20 ft | 7 kts | 231° |
| 2026-05-04 18:57 | 34.87000 | 33.61115 | 19 ft | 3 kts | 226° |
| 2026-05-04 18:57 | 34.86998 | 33.61113 | 19 ft | 0 kts | 226° |